Terminal Aerodrome Forecast
Issued by NWS

Home | Current Version | Previous Version | Text Only | Print | Product List | Glossary On
Versions: 1 2 3 4 5 6 7 8 9 10 11 12 13 14 15 16 17 18 19 20 21 22 23 24 25 26
000
FTUS43 KDVN 202320
TAFCID
TAF
KCID 202320Z 2100/2124 31012G24KT P6SM BKN070
     FM210300 26011KT P6SM SCT070
     FM211500 29028G38KT P6SM BKN045=

USA.gov is the U.S. government's official web portal to all federal, state and local government web resources and services.